createdAt,value
2017-10-25T00:00:36.877Z,101651.19
2017-10-25T00:03:09.714Z,101650.53
2017-10-25T00:05:42.745Z,101649.45
2017-10-25T00:08:16.384Z,101647.40
2017-10-25T00:10:49.434Z,101641.02
2017-10-25T00:13:27.253Z,101649.70
2017-10-25T00:15:59.879Z,101643.35
2017-10-25T00:18:38.956Z,101643.11
2017-10-25T00:21:10.926Z,101641.93
2017-10-25T00:23:48.358Z,101642.94
2017-10-25T00:26:21.235Z,101643.73
2017-10-25T00:28:59.458Z,101643.36
2017-10-25T00:31:38.954Z,101645.06
2017-10-25T00:34:11.641Z,101647.31
2017-10-25T00:36:45.705Z,101641.58
2017-10-25T00:42:17.323Z,101636.45
2017-10-25T00:44:49.646Z,101636.61
2017-10-25T00:47:22.539Z,101634.67
2017-10-25T00:49:55.937Z,101627.94
2017-10-25T00:52:27.621Z,101633.58
2017-10-25T00:55:00.059Z,101636.20
2017-10-25T00:57:32.215Z,101627.46
2017-10-25T01:00:13.231Z,101631.62
2017-10-25T01:02:47.283Z,101635.86
2017-10-25T01:05:23.042Z,101623.20
2017-10-25T01:07:57.048Z,101623.20
2017-10-25T01:10:29.207Z,101628.18
2017-10-25T01:13:06.213Z,101628.86
2017-10-25T01:15:39.903Z,101622.36
2017-10-25T01:18:12.203Z,101623.04
2017-10-25T01:20:44.207Z,101623.87
2017-10-25T01:23:16.425Z,101617.90
2017-10-25T01:25:48.859Z,101616.95
2017-10-25T01:28:22.624Z,101617.12
2017-10-25T01:30:55.957Z,101612.36
2017-10-25T01:33:29.244Z,101622.23
2017-10-25T01:36:07.337Z,101622.14
2017-10-25T01:38:40.920Z,101617.97
2017-10-25T01:41:13.243Z,101617.17
2017-10-25T01:43:45.958Z,101610.59
2017-10-25T01:46:25.882Z,101615.20
2017-10-25T01:49:11.008Z,101616.11
2017-10-25T01:51:43.631Z,101613.06
2017-10-25T01:54:24.216Z,101613.31
2017-10-25T01:59:34.439Z,101608.94
2017-10-25T02:02:07.818Z,101609.20
2017-10-25T02:04:46.219Z,101602.95
2017-10-25T02:07:18.645Z,101603.00
2017-10-25T02:09:50.658Z,101596.00
2017-10-25T02:12:29.828Z,101595.53
2017-10-25T02:15:18.303Z,101586.05
2017-10-25T02:17:57.450Z,101587.03
2017-10-25T02:20:30.031Z,101587.88
2017-10-25T02:23:10.670Z,101581.86
2017-10-25T02:28:35.235Z,101573.42
2017-10-25T02:31:07.433Z,101577.13
2017-10-25T02:38:25.047Z,101570.81
2017-10-25T02:41:16.793Z,101575.47
2017-10-25T02:43:48.717Z,101577.28
2017-10-25T02:49:07.717Z,101567.16
2017-10-25T02:51:39.919Z,101570.38
2017-10-25T03:00:02.136Z,101570.74
2017-10-25T03:02:38.326Z,101570.91
2017-10-25T03:05:10.953Z,101572.74
2017-10-25T03:07:43.436Z,101567.36
2017-10-25T03:10:15.725Z,101562.46
2017-10-25T03:12:49.728Z,101572.67
2017-10-25T03:15:23.249Z,101572.08
2017-10-25T03:17:58.160Z,101569.41
2017-10-25T03:20:33.546Z,101563.50
2017-10-25T03:23:05.834Z,101567.97
2017-10-25T03:25:37.621Z,101562.22
2017-10-25T03:28:09.922Z,101565.33
2017-10-25T03:30:42.248Z,101567.12
2017-10-25T03:33:15.314Z,101572.00
2017-10-25T03:35:47.518Z,101564.08
2017-10-25T03:40:58.165Z,101563.48
2017-10-25T03:43:30.132Z,101562.92
2017-10-25T03:46:03.323Z,101559.19
2017-10-25T03:48:35.336Z,101563.74
2017-10-25T03:51:08.349Z,101565.78
2017-10-25T03:53:40.635Z,101571.41
2017-10-25T03:59:08.445Z,101573.09
2017-10-25T04:01:41.372Z,101572.06
2017-10-25T04:04:13.849Z,101577.82
2017-10-25T04:06:45.963Z,101578.73
2017-10-25T04:09:24.234Z,101569.54
2017-10-25T04:11:57.369Z,101576.36
2017-10-25T04:14:29.551Z,101582.49
2017-10-25T04:17:02.651Z,101590.94
2017-10-25T04:19:34.650Z,101584.36
2017-10-25T04:22:07.780Z,101581.20
2017-10-25T04:24:40.233Z,101577.62
2017-10-25T04:27:20.508Z,101582.63
2017-10-25T04:29:54.156Z,101573.23
2017-10-25T04:32:27.037Z,101579.25
2017-10-25T04:35:00.292Z,101562.55
2017-10-25T04:37:32.641Z,101568.55
2017-10-25T04:40:06.229Z,101565.73
2017-10-25T04:42:39.735Z,101561.41
2017-10-25T04:45:27.839Z,101557.96
2017-10-25T04:48:06.534Z,101560.52
2017-10-25T04:51:00.138Z,101556.15
2017-10-25T04:53:49.454Z,101554.62
2017-10-25T04:56:26.553Z,101551.41
2017-10-25T04:59:00.361Z,101556.31
2017-10-25T05:01:34.060Z,101538.28
2017-10-25T05:04:06.521Z,101541.87
2017-10-25T05:06:39.536Z,101538.77
2017-10-25T05:09:26.942Z,101532.05
2017-10-25T05:12:01.635Z,101531.44
2017-10-25T05:14:33.548Z,101548.44
2017-10-25T05:17:06.638Z,101542.22
2017-10-25T05:19:38.435Z,101541.22
2017-10-25T05:22:10.140Z,101520.82
2017-10-25T05:24:42.136Z,101554.53
2017-10-25T05:27:13.870Z,101548.45
2017-10-25T05:29:46.441Z,101531.94
2017-10-25T05:35:01.428Z,101530.88
2017-10-25T05:37:33.776Z,101535.37
2017-10-25T05:40:07.942Z,101536.96
2017-10-25T05:42:47.762Z,101536.88
2017-10-25T05:45:23.336Z,101550.34
2017-10-25T05:47:56.236Z,101543.34
2017-10-25T05:50:43.235Z,101544.60
2017-10-25T05:53:21.843Z,101545.84
2017-10-25T05:56:04.632Z,101548.63
2017-10-25T05:58:37.540Z,101541.95
2017-10-25T06:01:11.094Z,101539.27
2017-10-25T06:03:43.069Z,101534.64
2017-10-25T06:06:15.442Z,101532.22
2017-10-25T06:08:47.529Z,101531.29
2017-10-25T06:11:23.914Z,101552.54
2017-10-25T06:14:02.440Z,101553.21
2017-10-25T06:16:35.640Z,101558.50
2017-10-25T06:19:10.963Z,101553.17
2017-10-25T06:21:47.603Z,101544.53
2017-10-25T06:24:21.298Z,101544.05
2017-10-25T06:26:58.770Z,101554.62
2017-10-25T06:29:38.128Z,101548.86
2017-10-25T06:32:12.627Z,101539.61
2017-10-25T06:34:47.180Z,101559.25
2017-10-25T06:37:30.845Z,101550.57
2017-10-25T06:40:06.320Z,101558.56
2017-10-25T06:42:38.932Z,101555.12
2017-10-25T06:45:20.528Z,101553.41
2017-10-25T06:47:57.638Z,101555.03
2017-10-25T06:50:30.447Z,101560.50
2017-10-25T06:53:06.792Z,101567.34
2017-10-25T06:55:39.037Z,101573.88
2017-10-25T06:58:13.367Z,101577.98
2017-10-25T07:00:49.305Z,101582.05
2017-10-25T07:03:23.251Z,101587.20
2017-10-25T07:06:05.912Z,101589.73
2017-10-25T07:08:44.433Z,101590.55
2017-10-25T07:11:24.818Z,101578.12
2017-10-25T07:13:59.044Z,101578.25
2017-10-25T07:16:32.840Z,101578.84
2017-10-25T07:19:05.839Z,101582.20
2017-10-25T07:21:39.341Z,101582.80
2017-10-25T07:24:16.633Z,101586.50
2017-10-25T07:26:56.136Z,101613.60
2017-10-25T07:29:30.475Z,101610.45
2017-10-25T07:32:19.633Z,101615.34
2017-10-25T07:35:28.617Z,101621.16
2017-10-25T07:38:10.229Z,101609.61
2017-10-25T07:40:46.445Z,101614.70
2017-10-25T07:43:21.686Z,101620.42
2017-10-25T07:45:57.159Z,101625.19
2017-10-25T07:48:34.758Z,101624.48
2017-10-25T07:51:08.234Z,101637.23
2017-10-25T07:53:44.738Z,101636.91
2017-10-25T07:56:19.926Z,101650.84
2017-10-25T07:58:56.477Z,101652.92
2017-10-25T08:01:38.714Z,101646.44
2017-10-25T08:04:13.351Z,101655.80
2017-10-25T08:06:48.996Z,101643.97
2017-10-25T08:09:24.033Z,101645.20
2017-10-25T08:12:03.860Z,101638.59
2017-10-25T08:14:48.031Z,101648.12
2017-10-25T08:17:22.732Z,101645.92
2017-10-25T08:19:54.449Z,101638.83
2017-10-25T08:22:28.835Z,101620.50
2017-10-25T08:25:02.438Z,101623.30
2017-10-25T08:27:34.771Z,101622.53
2017-10-25T08:30:17.237Z,101628.64
2017-10-25T08:32:50.159Z,101624.78
2017-10-25T08:35:29.365Z,101608.28
2017-10-25T08:38:02.838Z,101634.55
2017-10-25T08:40:34.738Z,101627.59
2017-10-25T08:46:50.941Z,101636.63
2017-10-25T08:49:30.552Z,101642.11
2017-10-25T08:55:11.954Z,101643.04
2017-10-25T08:57:49.867Z,101644.81
2017-10-25T09:00:53.894Z,101645.44
2017-10-25T09:03:27.237Z,101642.94
2017-10-25T09:06:13.341Z,101639.25
2017-10-25T09:08:46.240Z,101636.73
2017-10-25T09:14:13.952Z,101632.59
2017-10-25T09:16:58.548Z,101647.04
2017-10-25T09:19:40.647Z,101651.25
2017-10-25T09:22:22.176Z,101656.83
2017-10-25T09:26:36.564Z,101658.86
2017-10-25T09:29:32.540Z,101659.98
2017-10-25T09:32:16.836Z,101661.04
2017-10-25T09:34:54.458Z,101652.53
2017-10-25T09:37:37.241Z,101643.45
2017-10-25T09:40:09.479Z,101659.28
2017-10-25T09:43:06.833Z,101663.59
2017-10-25T09:45:46.704Z,101659.63
2017-10-25T09:48:21.565Z,101661.02
2017-10-25T09:50:55.244Z,101683.49
2017-10-25T09:53:42.349Z,101666.73
2017-10-25T09:56:19.547Z,101665.08
2017-10-25T09:58:51.848Z,101668.02
2017-10-25T10:01:26.341Z,101678.05
2017-10-25T10:04:09.838Z,101688.40
2017-10-25T10:06:43.360Z,101686.28
2017-10-25T10:09:16.444Z,101684.96
2017-10-25T10:11:49.866Z,101689.72
2017-10-25T10:14:31.640Z,101682.02
2017-10-25T10:17:12.977Z,101684.59
2017-10-25T10:19:46.440Z,101682.36
2017-10-25T10:22:18.943Z,101682.24
2017-10-25T10:24:56.739Z,101685.48
2017-10-25T10:27:34.425Z,101683.59
2017-10-25T10:33:17.323Z,101687.17
2017-10-25T10:35:51.729Z,101661.92
2017-10-25T10:38:37.139Z,101683.89
2017-10-25T10:41:09.950Z,101685.69
2017-10-25T10:43:51.633Z,101698.27
2017-10-25T10:46:30.209Z,101693.95
2017-10-25T10:49:04.640Z,101696.62
2017-10-25T10:51:36.796Z,101698.13
2017-10-25T10:57:21.341Z,101698.95
2017-10-25T11:04:13.240Z,101692.56
2017-10-25T11:06:45.043Z,101709.44
2017-10-25T11:09:24.039Z,101709.88
2017-10-25T11:12:00.445Z,101700.51
2017-10-25T11:14:35.256Z,101699.45
2017-10-25T11:17:12.273Z,101682.77
2017-10-25T11:19:48.970Z,101694.02
2017-10-25T11:22:24.949Z,101696.47
2017-10-25T11:24:58.352Z,101693.48
2017-10-25T11:27:30.749Z,101688.64
2017-10-25T11:30:06.150Z,101695.80
2017-10-25T11:32:40.668Z,101691.64
2017-10-25T11:35:16.278Z,101660.84
2017-10-25T11:37:58.285Z,101702.76
2017-10-25T11:40:32.619Z,101693.84
2017-10-25T11:43:08.951Z,101700.98
2017-10-25T11:45:59.997Z,101704.63
2017-10-25T11:48:34.400Z,101711.37
2017-10-25T11:51:06.656Z,101699.23
2017-10-25T11:53:41.392Z,101701.12
2017-10-25T11:56:15.086Z,101688.06
2017-10-25T11:58:48.254Z,101702.02
2017-10-25T12:01:24.069Z,101697.89
2017-10-25T12:04:00.673Z,101685.34
2017-10-25T12:06:34.630Z,101701.48
2017-10-25T12:09:07.970Z,101705.44
2017-10-25T12:11:40.475Z,101708.45
2017-10-25T12:17:19.806Z,101711.00
2017-10-25T12:20:00.476Z,101697.50
2017-10-25T12:22:34.563Z,101714.06
2017-10-25T12:25:57.559Z,101691.02
2017-10-25T12:28:30.977Z,101715.86
2017-10-25T12:31:09.193Z,101720.41
2017-10-25T12:33:53.843Z,101713.64
2017-10-25T12:36:47.795Z,101718.17
2017-10-25T12:39:36.721Z,101711.20
2017-10-25T12:42:19.756Z,101713.19
2017-10-25T12:45:17.781Z,101710.47
2017-10-25T12:48:07.242Z,101721.66
2017-10-25T12:50:45.080Z,101723.28
2017-10-25T12:53:25.527Z,101716.64
2017-10-25T12:56:00.054Z,101710.84
2017-10-25T12:58:41.672Z,101712.38
2017-10-25T13:04:12.500Z,101716.48
2017-10-25T13:06:47.087Z,101713.31
2017-10-25T13:09:20.859Z,101718.05
2017-10-25T13:14:19.181Z,101714.07
2017-10-25T13:17:29.468Z,101737.95
2017-10-25T13:20:10.977Z,101743.67
2017-10-25T13:22:49.787Z,101729.73
2017-10-25T13:25:55.540Z,101735.31
2017-10-25T13:28:56.422Z,101748.70
2017-10-25T13:31:30.337Z,101754.27
2017-10-25T13:34:05.498Z,101748.28
2017-10-25T13:36:38.991Z,101754.43
2017-10-25T13:39:45.582Z,101764.12
2017-10-25T13:42:47.236Z,101768.83
2017-10-25T13:45:22.129Z,101703.34
2017-10-25T13:50:35.044Z,101766.82
2017-10-25T13:53:13.499Z,101756.11
2017-10-25T13:55:51.344Z,101768.44
2017-10-25T13:58:29.934Z,101768.43
2017-10-25T14:01:04.116Z,101754.05
2017-10-25T14:03:39.657Z,101755.23
2017-10-25T14:06:16.842Z,101759.38
2017-10-25T14:09:16.555Z,101762.16
2017-10-25T14:12:12.736Z,101761.74
2017-10-25T14:14:59.270Z,101768.08
2017-10-25T14:17:44.893Z,101765.77
2017-10-25T14:20:22.009Z,101762.33
2017-10-25T14:25:40.768Z,101763.25
2017-10-25T14:30:24.690Z,101764.27
2017-10-25T14:33:13.778Z,101770.56
2017-10-25T14:35:46.660Z,101763.54
2017-10-25T14:38:21.617Z,101781.28
2017-10-25T14:41:07.167Z,101784.40
2017-10-25T14:43:41.876Z,101783.17
2017-10-25T14:46:20.256Z,101782.23
2017-10-25T14:49:03.149Z,101783.00
2017-10-25T14:52:09.057Z,101799.20
2017-10-25T14:54:47.295Z,101794.58
2017-10-25T14:57:43.717Z,101797.62
2017-10-25T15:00:40.485Z,101799.16
2017-10-25T15:03:20.447Z,101807.92
2017-10-25T15:08:42.165Z,101806.39
2017-10-25T15:11:33.965Z,101816.22
2017-10-25T15:14:09.089Z,101825.95
2017-10-25T15:16:41.310Z,101823.68
2017-10-25T15:19:17.833Z,101831.41
2017-10-25T15:22:07.076Z,101830.97
2017-10-25T15:24:42.379Z,101842.73
2017-10-25T15:30:28.090Z,101844.84
2017-10-25T15:33:18.907Z,101844.13
2017-10-25T15:41:46.172Z,101851.83
2017-10-25T15:44:21.555Z,101855.25
2017-10-25T15:47:03.290Z,101851.46
2017-10-25T15:49:38.049Z,101848.44
2017-10-25T15:52:16.747Z,101858.20
2017-10-25T15:54:47.946Z,101857.00
2017-10-25T15:57:23.379Z,101860.22
2017-10-25T16:02:54.918Z,101865.34
2017-10-25T16:05:30.641Z,101873.13
2017-10-25T16:08:07.616Z,101864.64
2017-10-25T16:10:42.749Z,101857.95
2017-10-25T16:13:21.724Z,101871.63
2017-10-25T16:23:17.888Z,101875.13
2017-10-25T16:26:30.844Z,101881.68
2017-10-25T16:29:17.201Z,101881.21
2017-10-25T16:49:30.536Z,101889.34
2017-10-25T16:52:10.107Z,101894.97
2017-10-25T16:54:46.103Z,101897.00
2017-10-25T16:57:24.419Z,101897.55
2017-10-25T17:00:00.001Z,101900.11
2017-10-25T17:02:35.995Z,101901.89
2017-10-25T17:05:10.965Z,101901.64
2017-10-25T17:07:48.606Z,101904.97
2017-10-25T17:10:31.859Z,101910.80
2017-10-25T17:13:03.226Z,101910.83
2017-10-25T17:15:41.815Z,101918.80
2017-10-25T17:18:30.064Z,101901.16
2017-10-25T17:27:35.186Z,101940.72
2017-10-25T17:30:18.911Z,101945.69
2017-10-25T17:35:34.971Z,101934.87
2017-10-25T17:38:14.577Z,101937.83
2017-10-25T17:43:39.731Z,101936.53
2017-10-25T17:46:15.212Z,101929.39
2017-10-25T17:49:09.345Z,101928.69
2017-10-25T17:51:51.780Z,101932.56
2017-10-25T17:54:31.898Z,101932.31
2017-10-25T17:57:09.337Z,101941.52
2017-10-25T17:59:46.704Z,101935.19
2017-10-25T18:02:26.386Z,101926.90
2017-10-25T18:05:05.733Z,101926.50
2017-10-25T18:07:51.227Z,101943.57
2017-10-25T18:10:30.998Z,101943.78
2017-10-25T18:13:15.309Z,101943.05
2017-10-25T18:15:54.207Z,101947.52
2017-10-25T18:18:33.286Z,101957.61
2017-10-25T18:21:10.194Z,101969.45
2017-10-25T18:23:48.057Z,101962.67
2017-10-25T18:26:31.111Z,101963.09
2017-10-25T18:29:13.781Z,101965.39
2017-10-25T18:31:50.681Z,101970.21
2017-10-25T18:34:42.336Z,101969.06
2017-10-25T18:37:18.696Z,101965.31
2017-10-25T18:40:00.391Z,101969.03
2017-10-25T18:45:39.490Z,101963.28
2017-10-25T18:48:18.179Z,101974.73
2017-10-25T18:50:58.821Z,101976.30
2017-10-25T18:53:36.843Z,101979.15
2017-10-25T18:56:13.527Z,101972.98
2017-10-25T18:58:52.922Z,101974.48
2017-10-25T19:04:10.885Z,101961.80
2017-10-25T19:06:53.758Z,101969.02
2017-10-25T19:09:45.096Z,101968.73
2017-10-25T19:12:27.289Z,101967.04
2017-10-25T19:15:16.883Z,101981.40
2017-10-25T19:18:03.143Z,101988.66
2017-10-25T19:20:46.609Z,101979.42
2017-10-25T19:23:30.507Z,101996.09
2017-10-25T19:26:07.469Z,101994.91
2017-10-25T19:28:44.001Z,101997.97
2017-10-25T19:34:36.099Z,102000.55
2017-10-25T19:37:14.870Z,101993.14
2017-10-25T19:39:50.753Z,101999.77
2017-10-25T19:42:42.412Z,102009.41
2017-10-25T19:45:37.996Z,102007.22
2017-10-25T19:48:26.426Z,102000.84
2017-10-25T19:51:06.377Z,102008.64
2017-10-25T19:53:50.626Z,102010.95
2017-10-25T19:56:28.216Z,101995.38
2017-10-25T19:59:10.458Z,102003.28
2017-10-25T20:01:54.990Z,102006.22
2017-10-25T20:04:55.084Z,102008.88
2017-10-25T20:07:44.927Z,102006.72
2017-10-25T20:13:10.467Z,102010.27
2017-10-25T20:15:47.770Z,102009.63
2017-10-25T20:18:24.351Z,102020.25
2017-10-25T20:21:12.624Z,102012.68
2017-10-25T20:23:58.799Z,102028.16
2017-10-25T20:26:34.787Z,102035.52
2017-10-25T20:29:24.162Z,102031.64
2017-10-25T20:32:06.973Z,102022.06
2017-10-25T20:34:46.735Z,102014.22
2017-10-25T20:37:24.931Z,102016.38
2017-10-25T20:43:09.250Z,102056.11
2017-10-25T20:45:45.305Z,102056.06
2017-10-25T20:48:18.175Z,102067.06
2017-10-25T20:53:46.820Z,102046.78
2017-10-25T20:56:20.636Z,102037.68
2017-10-25T20:58:55.537Z,102038.06
2017-10-25T21:01:29.044Z,102043.69
2017-10-25T21:04:02.737Z,102034.93
2017-10-25T21:06:35.941Z,102043.87
2017-10-25T21:09:10.531Z,102048.22
2017-10-25T21:11:42.038Z,102062.84
2017-10-25T21:14:15.347Z,102066.83
2017-10-25T21:16:55.826Z,102066.73
2017-10-25T21:19:31.056Z,102066.55
2017-10-25T21:22:11.014Z,102064.03
2017-10-25T21:24:47.413Z,102054.51
2017-10-25T21:27:24.716Z,102064.37
2017-10-25T21:30:13.953Z,102058.07
2017-10-25T21:32:56.583Z,102056.68
2017-10-25T21:35:55.339Z,102058.43
2017-10-25T21:38:37.823Z,102059.73
2017-10-25T21:41:15.014Z,102049.84
2017-10-25T21:43:53.374Z,102060.52
2017-10-25T21:46:40.189Z,102039.69
2017-10-25T21:49:17.500Z,102055.06
2017-10-25T21:51:52.498Z,102057.17
2017-10-25T21:54:28.308Z,102061.91
2017-10-25T21:57:03.788Z,102068.52
2017-10-25T21:59:38.914Z,102068.67
2017-10-25T22:02:12.906Z,102073.77
2017-10-25T22:04:49.079Z,102069.20
2017-10-25T22:07:31.583Z,102066.61
2017-10-25T22:10:06.382Z,102063.55
2017-10-25T22:12:41.605Z,102055.05
2017-10-25T22:18:05.596Z,102072.53
2017-10-25T22:20:40.808Z,102060.67
2017-10-25T22:23:15.311Z,102066.86
2017-10-25T22:25:51.623Z,102063.93
2017-10-25T22:28:25.034Z,102056.66
2017-10-25T22:30:59.894Z,102059.80
2017-10-25T22:33:34.566Z,102064.37
2017-10-25T22:36:08.952Z,102067.47
2017-10-25T22:38:41.884Z,102062.30
2017-10-25T22:41:15.204Z,102065.15
2017-10-25T22:43:47.928Z,102070.89
2017-10-25T22:49:46.145Z,102071.97
2017-10-25T22:52:30.118Z,102073.67
2017-10-25T22:55:23.605Z,102077.78
2017-10-25T22:57:57.326Z,102082.06
2017-10-25T23:00:30.595Z,102079.49
2017-10-25T23:03:05.625Z,102088.67
2017-10-25T23:05:45.384Z,102083.47
2017-10-25T23:08:18.787Z,102082.37
2017-10-25T23:11:05.312Z,102090.18
2017-10-25T23:13:53.600Z,102092.50
2017-10-25T23:16:26.779Z,102091.28
2017-10-25T23:18:58.882Z,102098.77
2017-10-25T23:21:31.089Z,102092.94
2017-10-25T23:24:12.222Z,102085.97
2017-10-25T23:26:46.084Z,102084.81
2017-10-25T23:29:21.267Z,102083.11
2017-10-25T23:31:53.157Z,102080.99
2017-10-25T23:34:27.282Z,102076.63
2017-10-25T23:37:01.477Z,102073.61
2017-10-25T23:39:33.622Z,102073.40
2017-10-25T23:42:05.504Z,102067.09
2017-10-25T23:44:38.536Z,102069.27
2017-10-25T23:47:12.763Z,102062.42
2017-10-25T23:49:46.320Z,102066.41
2017-10-25T23:52:18.775Z,102063.13
2017-10-25T23:54:51.126Z,102064.40
2017-10-25T23:57:38.120Z,102056.18
